createdAt,value
2022-08-01T00:01:59.792Z,17.25
2022-08-01T00:04:26.575Z,17.26
2022-08-01T00:06:53.109Z,17.23
2022-08-01T00:09:23.762Z,17.26
2022-08-01T00:11:59.649Z,17.24
2022-08-01T00:14:32.057Z,17.24
2022-08-01T00:17:05.251Z,17.18
2022-08-01T00:19:34.131Z,17.19
2022-08-01T00:22:00.863Z,17.15
2022-08-01T00:24:28.246Z,17.13
2022-08-01T00:26:54.849Z,17.16
2022-08-01T00:30:09.830Z,17.17
2022-08-01T00:32:08.485Z,17.17
2022-08-01T00:34:35.208Z,17.18
2022-08-01T00:37:01.856Z,17.18
2022-08-01T00:39:28.380Z,17.18
2022-08-01T00:41:59.614Z,17.17
2022-08-01T00:44:35.142Z,17.22
2022-08-01T00:47:02.047Z,17.22
2022-08-01T00:49:28.971Z,17.21
2022-08-01T00:51:56.207Z,17.21
2022-08-01T00:54:24.566Z,17.19
2022-08-01T00:56:51.140Z,17.15
2022-08-01T00:59:18.935Z,17.16
2022-08-01T01:01:50.048Z,17.16
2022-08-01T01:04:17.473Z,17.16
2022-08-01T01:06:53.108Z,17.15
2022-08-01T01:09:37.383Z,17.11
2022-08-01T01:12:18.973Z,17.05
2022-08-01T01:14:54.902Z,17.10
2022-08-01T01:17:49.927Z,17.13
2022-08-01T01:20:15.204Z,17.16
2022-08-01T01:23:01.965Z,17.17
2022-08-01T01:25:37.781Z,17.17
2022-08-01T01:28:22.021Z,17.18
2022-08-01T01:30:52.355Z,17.17
2022-08-01T01:33:20.687Z,17.17
2022-08-01T01:35:50.246Z,17.18
2022-08-01T01:38:22.603Z,17.19
2022-08-01T01:40:50.422Z,17.24
2022-08-01T01:43:17.910Z,17.17
2022-08-01T01:45:47.083Z,17.16
2022-08-01T01:48:15.063Z,17.16
2022-08-01T01:50:42.362Z,17.06
2022-08-01T01:53:15.181Z,17.11
2022-08-01T01:55:49.272Z,17.13
2022-08-01T01:58:17.371Z,17.10
2022-08-01T02:00:45.830Z,17.06
2022-08-01T02:03:13.409Z,17.02
2022-08-01T02:05:40.875Z,16.98
2022-08-01T02:08:09.155Z,16.99
2022-08-01T02:10:36.467Z,16.99
2022-08-01T02:13:05.155Z,16.99
2022-08-01T02:15:32.876Z,16.99
2022-08-01T02:18:01.101Z,16.97
2022-08-01T02:20:30.440Z,17.01
2022-08-01T02:23:01.752Z,17.00
2022-08-01T02:25:33.092Z,17.00
2022-08-01T02:28:06.513Z,17.05
2022-08-01T02:30:36.962Z,17.05
2022-08-01T02:33:32.821Z,17.02
2022-08-01T02:36:32.469Z,17.00
2022-08-01T02:38:47.913Z,16.99
2022-08-01T02:41:19.572Z,17.01
2022-08-01T02:43:50.724Z,17.00
2022-08-01T02:46:40.902Z,17.00
2022-08-01T02:49:09.139Z,17.02
2022-08-01T02:51:37.011Z,16.95
2022-08-01T02:54:05.100Z,16.98
2022-08-01T02:56:38.617Z,16.99
2022-08-01T02:59:22.212Z,16.96
2022-08-01T03:01:50.179Z,16.96
2022-08-01T03:04:18.841Z,16.92
2022-08-01T03:06:45.779Z,17.00
2022-08-01T03:09:13.031Z,16.94
2022-08-01T03:11:42.107Z,16.98
2022-08-01T03:14:10.062Z,17.01
2022-08-01T03:16:39.327Z,16.95
2022-08-01T03:19:06.484Z,16.97
2022-08-01T03:21:33.556Z,17.01
2022-08-01T03:24:01.636Z,17.01
2022-08-01T03:26:30.433Z,16.98
2022-08-01T03:28:58.811Z,16.97
2022-08-01T03:31:26.381Z,16.97
2022-08-01T03:33:53.079Z,16.98
2022-08-01T03:36:22.537Z,16.91
2022-08-01T03:38:50.698Z,16.98
2022-08-01T03:41:22.086Z,16.93
2022-08-01T03:43:59.691Z,16.97
2022-08-01T03:46:31.333Z,16.97
2022-08-01T03:49:02.185Z,16.94
2022-08-01T03:51:30.911Z,16.91
2022-08-01T03:53:58.635Z,16.88
2022-08-01T03:56:25.309Z,16.90
2022-08-01T03:58:52.277Z,16.90
2022-08-01T04:01:19.927Z,17.01
2022-08-01T04:03:46.914Z,17.01
2022-08-01T04:06:14.943Z,16.97
2022-08-01T04:08:42.247Z,16.94
2022-08-01T04:11:10.051Z,16.95
2022-08-01T04:13:38.303Z,16.95
2022-08-01T04:16:05.730Z,16.99
2022-08-01T04:18:33.091Z,16.94
2022-08-01T04:20:59.627Z,16.95
2022-08-01T04:23:26.595Z,16.98
2022-08-01T04:25:53.593Z,16.96
2022-08-01T04:28:20.733Z,16.98
2022-08-01T04:30:48.581Z,16.98
2022-08-01T04:33:17.231Z,16.98
2022-08-01T04:36:01.810Z,16.99
2022-08-01T04:38:32.459Z,17.02
2022-08-01T04:40:59.138Z,17.06
2022-08-01T04:43:35.072Z,17.10
2022-08-01T04:46:04.720Z,17.11
2022-08-01T04:48:32.865Z,17.12
2022-08-01T04:50:59.444Z,17.16
2022-08-01T04:53:27.047Z,17.20
2022-08-01T04:55:53.578Z,17.26
2022-08-01T04:58:20.192Z,17.25
2022-08-01T05:00:47.827Z,17.25
2022-08-01T05:03:14.591Z,17.28
2022-08-01T05:05:41.295Z,17.25
2022-08-01T05:08:07.878Z,17.25
2022-08-01T05:10:34.922Z,17.25
2022-08-01T05:13:01.484Z,17.30
2022-08-01T05:15:28.165Z,17.34
2022-08-01T05:17:55.316Z,17.48
2022-08-01T05:20:22.310Z,17.57
2022-08-01T05:22:49.163Z,17.71
2022-08-01T05:25:20.017Z,17.93
2022-08-01T05:27:47.056Z,17.96
2022-08-01T05:30:16.922Z,18.00
2022-08-01T05:32:43.463Z,17.94
2022-08-01T05:35:10.515Z,17.89
2022-08-01T05:37:37.036Z,17.83
2022-08-01T05:40:04.402Z,17.78
2022-08-01T05:42:31.211Z,17.75
2022-08-01T05:44:57.867Z,17.67
2022-08-01T05:47:24.483Z,17.55
2022-08-01T05:49:51.007Z,17.63
2022-08-01T05:52:17.604Z,17.61
2022-08-01T05:54:44.139Z,17.63
2022-08-01T05:57:11.235Z,17.70
2022-08-01T05:59:39.005Z,17.81
2022-08-01T06:02:05.984Z,17.82
2022-08-01T06:04:32.717Z,17.84
2022-08-01T06:06:59.362Z,17.88
2022-08-01T06:09:25.923Z,17.90
2022-08-01T06:11:52.517Z,17.94
2022-08-01T06:14:19.038Z,17.94
2022-08-01T06:16:45.602Z,17.92
2022-08-01T06:19:12.142Z,17.97
2022-08-01T06:21:38.685Z,18.05
2022-08-01T06:24:05.719Z,18.13
2022-08-01T06:26:32.350Z,18.31
2022-08-01T06:28:59.053Z,18.49
2022-08-01T06:31:27.635Z,18.62
2022-08-01T06:33:58.185Z,18.74
2022-08-01T06:36:24.762Z,18.90
2022-08-01T06:38:51.284Z,19.00
2022-08-01T06:41:17.877Z,19.09
2022-08-01T06:43:44.394Z,19.23
2022-08-01T06:46:11.022Z,19.37
2022-08-01T06:48:40.283Z,19.50
2022-08-01T06:51:09.706Z,19.41
2022-08-01T06:53:37.597Z,19.37
2022-08-01T06:56:05.247Z,19.49
2022-08-01T06:58:32.025Z,19.41
2022-08-01T07:00:58.819Z,19.46
2022-08-01T07:03:26.550Z,19.10
2022-08-01T07:05:54.339Z,18.97
2022-08-01T07:08:22.043Z,18.98
2022-08-01T07:10:48.666Z,19.01
2022-08-01T07:13:18.864Z,19.09
2022-08-01T07:15:45.377Z,19.15
2022-08-01T07:18:11.902Z,19.05
2022-08-01T07:20:50.238Z,19.09
2022-08-01T07:23:22.599Z,19.15
2022-08-01T07:25:52.551Z,19.18
2022-08-01T07:28:19.381Z,19.44
2022-08-01T07:30:45.997Z,19.92
2022-08-01T07:33:13.053Z,20.21
2022-08-01T07:35:40.448Z,20.62
2022-08-01T07:38:12.336Z,20.65
2022-08-01T07:40:39.256Z,20.63
2022-08-01T07:43:05.846Z,20.63
2022-08-01T07:45:32.871Z,20.47
2022-08-01T07:48:04.458Z,20.17
2022-08-01T07:50:35.576Z,19.92
2022-08-01T07:53:03.469Z,20.18
2022-08-01T07:55:30.149Z,20.76
2022-08-01T07:57:57.046Z,21.52
2022-08-01T08:00:23.630Z,21.89
2022-08-01T08:02:50.182Z,21.84
2022-08-01T08:05:16.771Z,21.90
2022-08-01T08:08:06.311Z,21.63
2022-08-01T08:10:33.337Z,21.78
2022-08-01T08:12:59.983Z,22.13
2022-08-01T08:15:26.506Z,21.93
2022-08-01T08:17:55.046Z,21.94
2022-08-01T08:20:28.001Z,22.40
2022-08-01T08:22:55.179Z,23.10
2022-08-01T08:25:26.748Z,23.09
2022-08-01T08:27:54.086Z,22.86
2022-08-01T08:30:20.781Z,22.68
2022-08-01T08:32:49.016Z,22.44
2022-08-01T08:35:23.249Z,22.12
2022-08-01T08:38:02.219Z,21.84
2022-08-01T08:40:32.431Z,21.84
2022-08-01T08:43:01.072Z,22.21
2022-08-01T08:45:30.942Z,22.70
2022-08-01T08:48:14.574Z,23.04
2022-08-01T08:50:42.658Z,23.38
2022-08-01T08:53:12.959Z,23.43
2022-08-01T08:55:56.473Z,23.13
2022-08-01T08:58:29.483Z,22.60
2022-08-01T09:00:58.850Z,22.48
2022-08-01T09:03:25.967Z,22.83
2022-08-01T09:05:52.647Z,22.86
2022-08-01T09:08:19.201Z,23.09
2022-08-01T09:10:45.738Z,23.57
2022-08-01T09:13:14.048Z,24.08
2022-08-01T09:15:48.370Z,24.21
2022-08-01T09:18:33.193Z,23.70
2022-08-01T09:21:21.112Z,23.99
2022-08-01T09:23:54.101Z,23.88
2022-08-01T09:26:41.719Z,24.01
2022-08-01T09:29:10.319Z,24.17
2022-08-01T09:31:47.577Z,24.48
2022-08-01T09:34:15.592Z,24.84
2022-08-01T09:36:59.341Z,24.58
2022-08-01T09:39:29.883Z,24.72
2022-08-01T09:41:58.792Z,24.78
2022-08-01T09:44:44.788Z,24.65
2022-08-01T09:47:21.580Z,24.77
2022-08-01T09:49:55.911Z,24.99
2022-08-01T09:52:28.783Z,25.25
2022-08-01T09:55:05.086Z,24.94
2022-08-01T09:57:31.676Z,25.04
2022-08-01T10:00:01.275Z,24.78
2022-08-01T10:02:36.392Z,24.95
2022-08-01T10:05:08.692Z,25.21
2022-08-01T10:07:59.595Z,25.81
2022-08-01T10:10:28.777Z,26.40
2022-08-01T10:12:57.367Z,26.95
2022-08-01T10:15:37.436Z,27.21
2022-08-01T10:18:16.851Z,26.65
2022-08-01T10:20:53.312Z,26.13
2022-08-01T10:23:23.337Z,27.01
2022-08-01T10:26:08.491Z,28.50
2022-08-01T10:28:38.681Z,28.41
2022-08-01T10:31:12.666Z,29.04
2022-08-01T10:33:50.794Z,29.83
2022-08-01T10:36:25.457Z,31.31
2022-08-01T10:38:54.706Z,32.33
2022-08-01T10:41:22.210Z,31.94
2022-08-01T10:43:48.743Z,32.55
2022-08-01T10:46:15.500Z,33.45
2022-08-01T10:48:57.794Z,34.67
2022-08-01T10:51:51.160Z,34.72
2022-08-01T10:54:13.651Z,35.00
2022-08-01T10:56:43.945Z,35.34
2022-08-01T10:59:11.734Z,35.64
2022-08-01T11:01:45.298Z,35.74
2022-08-01T11:04:17.911Z,36.57
2022-08-01T11:06:54.815Z,34.90
2022-08-01T11:09:39.066Z,33.95
2022-08-01T11:12:13.650Z,34.29
2022-08-01T11:14:59.214Z,34.53
2022-08-01T11:17:48.868Z,33.69
2022-08-01T11:20:17.588Z,33.09
2022-08-01T11:23:00.074Z,32.93
2022-08-01T11:26:06.519Z,31.60
2022-08-01T11:28:33.827Z,31.88
2022-08-01T11:31:11.294Z,33.10
2022-08-01T11:33:46.005Z,34.48
2022-08-01T11:36:22.215Z,34.84
2022-08-01T11:39:13.450Z,37.01
2022-08-01T11:41:41.988Z,38.34
2022-08-01T11:44:10.159Z,39.43
2022-08-01T11:47:08.905Z,39.36
2022-08-01T11:49:45.284Z,37.20
2022-08-01T11:52:29.111Z,33.85
2022-08-01T11:54:57.562Z,33.03
2022-08-01T11:57:34.156Z,32.14
2022-08-01T12:00:05.315Z,33.04
2022-08-01T12:02:35.922Z,32.95
2022-08-01T12:05:12.764Z,32.56
2022-08-01T12:07:42.491Z,31.09
2022-08-01T12:10:11.729Z,30.78
2022-08-01T12:12:44.312Z,33.32
2022-08-01T12:15:12.722Z,35.68
2022-08-01T12:17:45.812Z,36.80
2022-08-01T12:20:31.298Z,35.20
2022-08-01T12:23:01.208Z,36.51
2022-08-01T12:25:27.777Z,36.23
2022-08-01T12:27:56.546Z,34.84
2022-08-01T12:30:25.002Z,32.56
2022-08-01T12:32:52.312Z,30.19
2022-08-01T12:35:24.426Z,29.27
2022-08-01T12:37:59.577Z,31.45
2022-08-01T12:40:31.594Z,34.19
2022-08-01T12:42:59.474Z,35.68
2022-08-01T12:45:36.528Z,37.22
2022-08-01T12:48:08.592Z,37.75
2022-08-01T12:50:37.493Z,36.98
2022-08-01T12:53:04.118Z,37.17
2022-08-01T12:55:34.721Z,37.76
2022-08-01T12:58:20.170Z,38.48
2022-08-01T13:00:48.808Z,39.09
2022-08-01T13:03:16.674Z,40.13
2022-08-01T13:05:44.793Z,40.76
2022-08-01T13:08:14.874Z,39.34
2022-08-01T13:10:41.437Z,38.06
2022-08-01T13:13:08.344Z,37.11
2022-08-01T13:15:41.798Z,35.22
2022-08-01T13:18:30.586Z,32.81
2022-08-01T13:21:24.307Z,31.64
2022-08-01T13:24:11.763Z,32.89
2022-08-01T13:26:48.355Z,35.03
2022-08-01T13:29:17.747Z,33.21
2022-08-01T13:31:44.860Z,31.72
2022-08-01T13:34:12.035Z,31.47
2022-08-01T13:36:39.080Z,32.14
2022-08-01T13:39:24.572Z,30.40
2022-08-01T13:41:51.570Z,30.58
2022-08-01T13:44:18.100Z,31.12
2022-08-01T13:46:49.365Z,31.36
2022-08-01T13:49:17.729Z,30.77
2022-08-01T13:51:46.832Z,30.27
2022-08-01T13:54:13.554Z,28.10
2022-08-01T13:56:40.171Z,26.81
2022-08-01T13:59:07.556Z,26.74
2022-08-01T14:01:34.979Z,26.55
2022-08-01T14:04:02.050Z,26.33
2022-08-01T14:06:28.694Z,25.49
2022-08-01T14:08:55.210Z,25.27
2022-08-01T14:11:21.844Z,24.59
2022-08-01T14:13:48.381Z,24.28
2022-08-01T14:16:15.441Z,24.22
2022-08-01T14:18:44.082Z,24.62
2022-08-01T14:21:11.041Z,24.59
2022-08-01T14:23:37.674Z,24.89
2022-08-01T14:26:11.549Z,25.40
2022-08-01T14:28:39.412Z,25.71
2022-08-01T14:31:09.126Z,25.83
2022-08-01T14:33:35.958Z,26.38
2022-08-01T14:36:20.569Z,26.56
2022-08-01T14:38:49.736Z,26.73
2022-08-01T14:41:16.361Z,27.06
2022-08-01T14:43:43.121Z,27.32
2022-08-01T14:46:10.937Z,27.02
2022-08-01T14:48:37.616Z,25.91
2022-08-01T14:51:05.134Z,25.56
2022-08-01T14:53:35.746Z,24.70
2022-08-01T14:56:02.703Z,23.98
2022-08-01T14:58:29.586Z,23.78
2022-08-01T15:00:58.837Z,23.86
2022-08-01T15:03:26.318Z,24.37
2022-08-01T15:05:52.834Z,24.42
2022-08-01T15:08:19.378Z,24.37
2022-08-01T15:10:45.937Z,24.46
2022-08-01T15:13:12.503Z,24.44
2022-08-01T15:15:39.054Z,23.89
2022-08-01T15:18:05.800Z,23.90
2022-08-01T15:20:33.823Z,23.83
2022-08-01T15:23:00.581Z,24.35
2022-08-01T15:25:41.856Z,24.88
2022-08-01T15:28:10.488Z,24.75
2022-08-01T15:30:37.295Z,25.10
2022-08-01T15:33:04.056Z,25.22
2022-08-01T15:35:30.630Z,24.80
2022-08-01T15:37:57.259Z,24.77
2022-08-01T15:40:23.898Z,24.90
2022-08-01T15:42:50.466Z,24.93
2022-08-01T15:45:45.699Z,24.50
2022-08-01T15:48:08.441Z,24.09
2022-08-01T15:50:35.447Z,24.30
2022-08-01T15:53:02.065Z,24.55
2022-08-01T15:55:28.749Z,24.63
2022-08-01T15:57:55.693Z,24.13
2022-08-01T16:00:22.304Z,23.83
2022-08-01T16:02:48.845Z,24.11
2022-08-01T16:05:16.006Z,24.26
2022-08-01T16:07:59.501Z,24.18
2022-08-01T16:10:29.573Z,23.90
2022-08-01T16:12:56.173Z,23.74
2022-08-01T16:15:23.035Z,23.74
2022-08-01T16:18:03.011Z,23.69
2022-08-01T16:20:29.976Z,23.53
2022-08-01T16:22:56.535Z,23.25
2022-08-01T16:25:23.165Z,23.35
2022-08-01T16:27:50.146Z,23.31
2022-08-01T16:30:16.876Z,23.35
2022-08-01T16:32:45.291Z,23.10
2022-08-01T16:35:14.935Z,22.87
2022-08-01T16:37:41.471Z,22.70
2022-08-01T16:40:08.301Z,22.70
2022-08-01T16:42:34.963Z,22.67
2022-08-01T16:45:03.929Z,22.72
2022-08-01T16:47:35.688Z,22.73
2022-08-01T16:50:02.221Z,22.63
2022-08-01T16:52:28.959Z,22.15
2022-08-01T16:54:57.445Z,22.00
2022-08-01T16:57:24.337Z,22.13
2022-08-01T16:59:50.892Z,22.24
2022-08-01T17:02:17.439Z,22.32
2022-08-01T17:04:44.076Z,22.38
2022-08-01T17:07:10.931Z,22.20
2022-08-01T17:09:43.168Z,22.06
2022-08-01T17:12:11.874Z,21.98
2022-08-01T17:14:39.981Z,21.90
2022-08-01T17:17:07.272Z,21.74
2022-08-01T17:19:34.298Z,21.76
2022-08-01T17:22:01.081Z,21.75
2022-08-01T17:24:27.779Z,21.69
2022-08-01T17:26:54.502Z,21.78
2022-08-01T17:29:21.084Z,21.77
2022-08-01T17:31:47.608Z,21.85
2022-08-01T17:34:14.422Z,21.91
2022-08-01T17:36:40.984Z,21.96
2022-08-01T17:39:08.815Z,21.72
2022-08-01T17:41:35.651Z,21.44
2022-08-01T17:44:02.281Z,21.41
2022-08-01T17:46:28.818Z,21.20
2022-08-01T17:48:55.381Z,21.14
2022-08-01T17:51:22.947Z,21.14
2022-08-01T17:53:55.753Z,20.91
2022-08-01T17:56:25.321Z,21.03
2022-08-01T17:58:52.399Z,21.04
2022-08-01T18:01:19.466Z,21.14
2022-08-01T18:03:46.676Z,21.18
2022-08-01T18:06:15.685Z,21.05
2022-08-01T18:08:42.843Z,21.08
2022-08-01T18:11:09.692Z,21.11
2022-08-01T18:13:36.644Z,21.04
2022-08-01T18:16:08.901Z,21.02
2022-08-01T18:18:35.900Z,20.90
2022-08-01T18:21:02.723Z,20.79
2022-08-01T18:23:29.318Z,20.68
2022-08-01T18:25:55.912Z,20.63
2022-08-01T18:28:32.361Z,20.51
2022-08-01T18:31:02.014Z,20.32
2022-08-01T18:33:28.648Z,20.20
2022-08-01T18:35:57.687Z,20.11
2022-08-01T18:38:32.228Z,20.05
2022-08-01T18:41:00.611Z,19.97
2022-08-01T18:43:27.415Z,19.85
2022-08-01T18:45:54.183Z,19.62
2022-08-01T18:48:20.711Z,19.46
2022-08-01T18:50:47.314Z,19.31
2022-08-01T18:53:13.892Z,19.18
2022-08-01T18:55:40.433Z,18.99
2022-08-01T18:58:06.995Z,18.73
2022-08-01T19:00:33.648Z,18.55
2022-08-01T19:03:00.307Z,18.28
2022-08-01T19:05:26.854Z,18.11
2022-08-01T19:08:06.467Z,17.77
2022-08-01T19:10:41.262Z,17.51
2022-08-01T19:13:08.627Z,17.33
2022-08-01T19:15:35.803Z,17.25
2022-08-01T19:18:03.189Z,17.22
2022-08-01T19:20:30.034Z,17.20
2022-08-01T19:22:56.725Z,17.14
2022-08-01T19:25:24.029Z,17.12
2022-08-01T19:27:50.620Z,17.13
2022-08-01T19:30:18.410Z,17.02
2022-08-01T19:32:46.607Z,16.97
2022-08-01T19:35:15.289Z,16.87
2022-08-01T19:37:54.085Z,16.79
2022-08-01T19:40:26.070Z,16.77
2022-08-01T19:42:54.846Z,16.70
2022-08-01T19:45:21.507Z,16.55
2022-08-01T19:47:56.178Z,16.52
2022-08-01T19:50:23.954Z,16.39
2022-08-01T19:52:52.042Z,16.33
2022-08-01T19:55:18.961Z,16.32
2022-08-01T19:57:59.331Z,16.19
2022-08-01T20:00:37.121Z,16.17
2022-08-01T20:03:04.293Z,16.08
2022-08-01T20:05:31.056Z,16.04
2022-08-01T20:07:58.644Z,15.99
2022-08-01T20:10:25.368Z,15.89
2022-08-01T20:12:52.735Z,15.84
2022-08-01T20:15:19.652Z,15.78
2022-08-01T20:17:46.246Z,15.74
2022-08-01T20:20:12.880Z,15.69
2022-08-01T20:22:41.266Z,15.61
2022-08-01T20:25:09.238Z,15.59
2022-08-01T20:27:36.007Z,15.49
2022-08-01T20:30:02.721Z,15.48
2022-08-01T20:32:33.544Z,15.39
2022-08-01T20:35:01.259Z,15.31
2022-08-01T20:38:01.251Z,15.21
2022-08-01T20:40:15.788Z,15.05
2022-08-01T20:42:45.414Z,14.93
2022-08-01T20:45:18.068Z,14.93
2022-08-01T20:47:46.868Z,14.94
2022-08-01T20:50:53.144Z,14.98
2022-08-01T20:53:18.847Z,14.93
2022-08-01T20:55:49.536Z,14.94
2022-08-01T20:58:23.597Z,14.78
2022-08-01T21:00:52.391Z,14.70
2022-08-01T21:03:26.241Z,14.67
2022-08-01T21:06:02.446Z,14.64
2022-08-01T21:08:35.907Z,14.63
2022-08-01T21:11:03.426Z,14.55
2022-08-01T21:13:41.655Z,14.56
2022-08-01T21:16:23.759Z,14.59
2022-08-01T21:21:53.519Z,14.77
2022-08-01T21:24:23.521Z,14.76
2022-08-01T21:26:50.338Z,14.75
2022-08-01T21:29:18.170Z,14.77
2022-08-01T21:31:46.368Z,14.69
2022-08-01T21:34:14.365Z,14.64
2022-08-01T21:36:44.399Z,14.53
2022-08-01T21:39:11.166Z,14.43
2022-08-01T21:42:01.359Z,14.40
2022-08-01T21:44:28.583Z,14.44
2022-08-01T21:46:56.700Z,14.44
2022-08-01T21:49:23.420Z,14.41
2022-08-01T21:51:58.125Z,14.35
2022-08-01T21:54:29.103Z,14.37
2022-08-01T21:57:09.168Z,14.35
2022-08-01T21:59:38.739Z,14.18
2022-08-01T22:02:18.109Z,14.13
2022-08-01T22:04:52.923Z,14.08
2022-08-01T22:07:21.282Z,14.08
2022-08-01T22:09:49.711Z,13.96
2022-08-01T22:12:18.537Z,13.81
2022-08-01T22:14:49.033Z,13.76
2022-08-01T22:17:22.645Z,13.60
2022-08-01T22:19:56.276Z,13.53
2022-08-01T22:22:44.105Z,13.51
2022-08-01T22:25:12.364Z,13.60
2022-08-01T22:28:05.668Z,13.60
2022-08-01T22:30:29.286Z,13.54
2022-08-01T22:33:07.736Z,13.49
2022-08-01T22:35:47.678Z,13.53
2022-08-01T22:38:14.512Z,13.55
2022-08-01T22:41:05.411Z,13.50
2022-08-01T22:43:43.044Z,13.44
2022-08-01T22:46:16.474Z,13.50
2022-08-01T22:49:09.305Z,13.48
2022-08-01T22:51:54.550Z,13.40
2022-08-01T22:54:25.776Z,13.35
2022-08-01T22:56:56.175Z,13.38
2022-08-01T22:59:47.380Z,13.36
2022-08-01T23:02:16.166Z,13.31
2022-08-01T23:04:45.800Z,13.33
2022-08-01T23:07:16.819Z,13.33
2022-08-01T23:09:54.119Z,13.33
2022-08-01T23:12:23.191Z,13.38
2022-08-01T23:14:52.986Z,13.38
2022-08-01T23:17:27.169Z,13.43
2022-08-01T23:20:00.673Z,13.43
2022-08-01T23:22:30.274Z,13.39
2022-08-01T23:25:04.525Z,13.34
2022-08-01T23:27:51.936Z,13.29
2022-08-01T23:30:26.826Z,13.23
2022-08-01T23:32:53.779Z,13.21
2022-08-01T23:35:20.622Z,13.25
2022-08-01T23:37:47.251Z,13.24
2022-08-01T23:40:13.810Z,13.24
2022-08-01T23:42:40.340Z,13.20
2022-08-01T23:45:07.436Z,13.10
2022-08-01T23:47:33.971Z,13.05
2022-08-01T23:50:00.509Z,13.02
2022-08-01T23:52:32.500Z,12.98
2022-08-01T23:55:11.589Z,12.98
2022-08-01T23:57:41.800Z,12.96
